createdAt,value
2018-09-17T00:01:28.237Z,15.96
2018-09-17T00:03:56.738Z,15.91
2018-09-17T00:06:25.417Z,15.85
2018-09-17T00:08:54.153Z,15.87
2018-09-17T00:11:22.706Z,15.87
2018-09-17T00:13:51.228Z,15.88
2018-09-17T00:16:19.897Z,15.84
2018-09-17T00:18:48.682Z,15.77
2018-09-17T00:21:17.158Z,15.78
2018-09-17T00:23:45.793Z,15.78
2018-09-17T00:26:15.017Z,15.75
2018-09-17T00:28:43.568Z,15.65
2018-09-17T00:31:12.133Z,15.63
2018-09-17T00:33:40.592Z,15.63
2018-09-17T00:36:09.092Z,15.59
2018-09-17T00:38:37.609Z,15.57
2018-09-17T00:41:06.286Z,15.54
2018-09-17T00:43:34.794Z,15.49
2018-09-17T00:46:03.357Z,15.43
2018-09-17T00:48:32.102Z,15.39
2018-09-17T00:51:00.616Z,15.34
2018-09-17T00:53:29.205Z,15.30
2018-09-17T00:55:57.719Z,15.31
2018-09-17T00:58:26.797Z,15.26
2018-09-17T01:00:55.643Z,15.13
2018-09-17T01:03:24.506Z,15.00
2018-09-17T01:05:53.416Z,15.11
2018-09-17T01:08:23.198Z,15.15
2018-09-17T01:10:51.976Z,15.09
2018-09-17T01:13:22.112Z,14.88
2018-09-17T01:15:51.947Z,14.96
2018-09-17T01:18:20.814Z,14.92
2018-09-17T01:20:49.588Z,14.93
2018-09-17T01:23:19.146Z,14.90
2018-09-17T01:25:49.952Z,14.89
2018-09-17T01:28:20.211Z,14.85
2018-09-17T01:30:49.780Z,14.70
2018-09-17T01:33:18.518Z,14.68
2018-09-17T01:35:47.246Z,14.75
2018-09-17T01:38:16.170Z,14.71
2018-09-17T01:40:45.127Z,14.76
2018-09-17T01:43:14.260Z,14.69
2018-09-17T01:45:42.951Z,14.67
2018-09-17T01:48:11.582Z,14.69
2018-09-17T01:50:43.306Z,14.65
2018-09-17T01:53:12.900Z,14.60
2018-09-17T01:55:41.943Z,14.57
2018-09-17T01:58:11.572Z,14.54
2018-09-17T02:00:40.964Z,14.60
2018-09-17T02:03:09.700Z,14.49
2018-09-17T02:05:38.599Z,14.53
2018-09-17T02:08:07.699Z,14.47
2018-09-17T02:10:36.408Z,14.47
2018-09-17T02:13:05.352Z,14.43
2018-09-17T02:15:34.192Z,14.38
2018-09-17T02:18:03.650Z,14.41
2018-09-17T02:20:32.391Z,14.32
2018-09-17T02:23:01.125Z,14.38
2018-09-17T02:25:30.573Z,14.34
2018-09-17T02:28:00.437Z,14.32
2018-09-17T02:30:31.307Z,14.28
2018-09-17T02:33:00.055Z,14.14
2018-09-17T02:35:28.724Z,14.19
2018-09-17T02:37:58.127Z,14.08
2018-09-17T02:40:27.061Z,14.08
2018-09-17T02:42:55.922Z,14.06
2018-09-17T02:45:24.822Z,14.06
2018-09-17T02:47:53.779Z,14.08
2018-09-17T02:50:22.624Z,14.05
2018-09-17T02:52:52.653Z,13.98
2018-09-17T02:55:22.194Z,13.92
2018-09-17T02:57:51.104Z,13.92
2018-09-17T03:00:21.576Z,13.88
2018-09-17T03:02:52.620Z,13.86
2018-09-17T03:05:21.519Z,13.85
2018-09-17T03:07:50.350Z,13.83
2018-09-17T03:10:19.197Z,13.86
2018-09-17T03:12:48.122Z,13.81
2018-09-17T03:15:28.024Z,13.74
2018-09-17T03:17:56.864Z,13.72
2018-09-17T03:20:25.632Z,13.72
2018-09-17T03:22:54.600Z,13.70
2018-09-17T03:25:24.350Z,13.71
2018-09-17T03:27:53.025Z,13.67
2018-09-17T03:30:21.881Z,13.66
2018-09-17T03:32:50.579Z,13.68
2018-09-17T03:35:19.387Z,13.65
2018-09-17T03:37:48.145Z,13.61
2018-09-17T03:40:17.133Z,13.64
2018-09-17T03:42:47.164Z,13.53
2018-09-17T03:45:15.848Z,13.49
2018-09-17T03:47:45.152Z,13.49
2018-09-17T03:50:13.973Z,13.50
2018-09-17T03:52:43.538Z,13.45
2018-09-17T03:55:12.179Z,13.47
2018-09-17T03:57:42.146Z,13.48
2018-09-17T04:00:11.468Z,13.47
2018-09-17T04:02:41.468Z,13.52
2018-09-17T04:05:10.172Z,13.46
2018-09-17T04:07:40.057Z,13.51
2018-09-17T04:10:09.682Z,13.39
2018-09-17T04:12:39.537Z,13.49
2018-09-17T04:15:08.521Z,13.45
2018-09-17T04:17:39.259Z,13.34
2018-09-17T04:20:09.695Z,13.33
2018-09-17T04:22:40.034Z,13.35
2018-09-17T04:25:08.990Z,13.27
2018-09-17T04:27:37.942Z,13.27
2018-09-17T04:30:07.094Z,13.26
2018-09-17T04:32:36.273Z,13.29
2018-09-17T04:35:07.334Z,13.20
2018-09-17T04:37:37.189Z,13.21
2018-09-17T04:40:06.784Z,13.16
2018-09-17T04:42:36.143Z,13.21
2018-09-17T04:45:06.394Z,13.15
2018-09-17T04:47:35.662Z,13.15
2018-09-17T04:50:04.971Z,13.18
2018-09-17T04:52:34.112Z,13.17
2018-09-17T04:55:03.187Z,13.22
2018-09-17T04:57:31.952Z,13.25
2018-09-17T05:00:03.729Z,13.25
2018-09-17T05:02:32.490Z,13.27
2018-09-17T05:05:01.303Z,13.28
2018-09-17T05:07:30.106Z,13.20
2018-09-17T05:09:58.792Z,13.20
2018-09-17T05:12:28.575Z,13.22
2018-09-17T05:14:58.692Z,13.20
2018-09-17T05:17:27.388Z,13.23
2018-09-17T05:19:56.730Z,13.26
2018-09-17T05:22:26.055Z,13.23
2018-09-17T05:24:54.776Z,13.19
2018-09-17T05:27:23.730Z,13.27
2018-09-17T05:29:54.197Z,13.28
2018-09-17T05:32:22.930Z,13.32
2018-09-17T05:34:51.821Z,13.32
2018-09-17T05:37:20.651Z,13.34
2018-09-17T05:39:49.350Z,13.43
2018-09-17T05:42:18.804Z,13.43
2018-09-17T05:44:47.608Z,13.48
2018-09-17T05:47:16.730Z,13.52
2018-09-17T05:49:45.419Z,13.60
2018-09-17T05:52:14.084Z,13.70
2018-09-17T05:54:42.873Z,13.76
2018-09-17T05:57:12.098Z,13.86
2018-09-17T05:59:41.727Z,13.95
2018-09-17T06:02:10.759Z,14.10
2018-09-17T06:04:39.541Z,14.22
2018-09-17T06:07:09.184Z,14.30
2018-09-17T06:09:37.877Z,14.49
2018-09-17T06:12:06.675Z,14.71
2018-09-17T06:14:35.552Z,14.89
2018-09-17T06:17:04.256Z,15.11
2018-09-17T06:19:32.968Z,15.29
2018-09-17T06:22:02.168Z,15.47
2018-09-17T06:24:30.911Z,15.61
2018-09-17T06:26:59.597Z,15.86
2018-09-17T06:29:29.029Z,15.99
2018-09-17T06:31:58.822Z,16.14
2018-09-17T06:34:27.544Z,16.56
2018-09-17T06:39:25.127Z,16.94
2018-09-17T06:41:53.785Z,17.16
2018-09-17T06:44:23.271Z,17.42
2018-09-17T06:46:51.960Z,17.51
2018-09-17T06:49:20.619Z,17.85
2018-09-17T06:51:50.002Z,18.26
2018-09-17T06:54:22.319Z,18.75
2018-09-17T06:56:51.090Z,18.91
2018-09-17T06:59:20.435Z,19.06
2018-09-17T07:01:49.302Z,19.53
2018-09-17T07:04:18.073Z,19.83
2018-09-17T07:06:47.881Z,20.11
2018-09-17T07:09:19.038Z,20.37
2018-09-17T07:11:48.529Z,20.48
2018-09-17T07:14:17.156Z,20.58
2018-09-17T07:16:45.886Z,21.30
2018-09-17T07:19:14.553Z,21.01
2018-09-17T07:21:44.116Z,21.19
2018-09-17T07:24:13.185Z,21.83
2018-09-17T07:26:41.747Z,22.00
2018-09-17T07:29:10.346Z,22.31
2018-09-17T07:31:38.854Z,22.80
2018-09-17T07:34:07.449Z,22.45
2018-09-17T07:36:36.144Z,22.83
2018-09-17T07:39:07.997Z,23.40
2018-09-17T07:41:37.367Z,23.02
2018-09-17T07:44:06.088Z,23.78
2018-09-17T07:46:38.471Z,24.09
2018-09-17T07:49:07.318Z,24.06
2018-09-17T07:51:36.691Z,23.80
2018-09-17T07:54:06.185Z,24.16
2018-09-17T07:56:34.814Z,24.14
2018-09-17T07:59:03.563Z,24.02
2018-09-17T08:01:32.609Z,24.98
2018-09-17T08:04:01.427Z,24.37
2018-09-17T08:06:30.787Z,25.11
2018-09-17T08:08:59.401Z,25.44
2018-09-17T08:11:28.841Z,25.66
2018-09-17T08:13:57.321Z,25.80
2018-09-17T08:16:26.785Z,25.45
2018-09-17T08:18:55.706Z,25.77
2018-09-17T08:21:26.664Z,25.76
2018-09-17T08:23:56.739Z,25.63
2018-09-17T08:26:26.162Z,25.82
2018-09-17T08:28:54.899Z,26.49
2018-09-17T08:31:23.741Z,25.80
2018-09-17T08:33:52.480Z,26.16
2018-09-17T08:36:21.376Z,25.88
2018-09-17T08:38:50.380Z,26.57
2018-09-17T08:41:19.158Z,25.88
2018-09-17T08:43:48.366Z,25.94
2018-09-17T08:46:17.010Z,26.15
2018-09-17T08:48:46.576Z,26.40
2018-09-17T08:51:15.229Z,26.36
2018-09-17T08:53:44.623Z,26.90
2018-09-17T08:56:18.510Z,26.89
2018-09-17T08:58:52.418Z,26.19
2018-09-17T09:01:26.232Z,26.12
2018-09-17T09:04:00.252Z,26.42
2018-09-17T09:06:34.081Z,26.48
2018-09-17T09:09:04.719Z,26.26
2018-09-17T09:11:38.761Z,26.90
2018-09-17T09:14:09.912Z,26.57
2018-09-17T09:16:38.477Z,26.75
2018-09-17T09:19:09.017Z,26.87
2018-09-17T09:21:38.606Z,26.55
2018-09-17T09:24:07.209Z,26.11
2018-09-17T09:26:37.492Z,26.42
2018-09-17T09:29:06.031Z,26.24
2018-09-17T09:31:34.683Z,26.68
2018-09-17T09:34:03.209Z,27.03
2018-09-17T09:36:31.724Z,26.72
2018-09-17T09:39:00.243Z,26.97
2018-09-17T09:41:28.748Z,27.02
2018-09-17T09:43:57.351Z,27.45
2018-09-17T09:46:25.967Z,27.80
2018-09-17T09:48:55.540Z,27.77
2018-09-17T09:51:24.359Z,27.48
2018-09-17T09:53:53.667Z,27.68
2018-09-17T09:56:22.504Z,28.27
2018-09-17T09:58:51.032Z,28.68
2018-09-17T10:01:26.834Z,28.86
2018-09-17T10:04:01.347Z,28.62
2018-09-17T10:06:31.657Z,29.22
2018-09-17T10:09:06.023Z,29.46
2018-09-17T10:11:39.915Z,29.65
2018-09-17T10:14:13.681Z,30.68
2018-09-17T10:17:45.471Z,31.78
2018-09-17T10:20:14.598Z,31.52
2018-09-17T10:22:43.352Z,32.80
2018-09-17T10:25:12.033Z,32.81
2018-09-17T10:27:41.737Z,33.09
2018-09-17T10:30:10.962Z,33.97
2018-09-17T10:32:39.615Z,35.35
2018-09-17T10:35:08.510Z,34.82
2018-09-17T10:37:37.017Z,34.83
2018-09-17T10:40:06.265Z,34.75
2018-09-17T10:42:35.579Z,35.98
2018-09-17T10:45:04.061Z,36.14
2018-09-17T10:47:32.653Z,35.48
2018-09-17T10:50:02.197Z,35.15
2018-09-17T10:52:30.876Z,33.98
2018-09-17T10:55:02.022Z,33.33
2018-09-17T10:57:31.215Z,31.90
2018-09-17T10:59:59.990Z,31.59
2018-09-17T11:02:29.156Z,31.11
2018-09-17T11:04:57.609Z,30.40
2018-09-17T11:07:26.215Z,30.55
2018-09-17T11:09:54.705Z,30.22
2018-09-17T11:12:23.140Z,29.08
2018-09-17T11:14:51.817Z,29.49
2018-09-17T11:17:20.357Z,29.42
2018-09-17T11:19:48.791Z,28.69
2018-09-17T11:22:18.482Z,28.55
2018-09-17T11:24:47.964Z,28.41
2018-09-17T11:27:16.518Z,28.51
2018-09-17T11:29:45.041Z,27.91
2018-09-17T11:32:13.618Z,28.02
2018-09-17T11:34:42.609Z,27.69
2018-09-17T11:37:11.219Z,27.68
2018-09-17T11:39:39.774Z,27.50
2018-09-17T11:42:08.754Z,27.36
2018-09-17T11:44:37.455Z,27.24
2018-09-17T11:47:06.286Z,27.04
2018-09-17T11:49:36.269Z,26.92
2018-09-17T11:52:04.771Z,26.78
2018-09-17T11:54:33.821Z,26.66
2018-09-17T11:57:02.432Z,26.73
2018-09-17T11:59:31.425Z,26.68
2018-09-17T12:02:05.905Z,26.52
2018-09-17T12:04:42.228Z,26.49
2018-09-17T12:07:16.115Z,26.44
2018-09-17T12:09:44.739Z,26.25
2018-09-17T12:12:14.264Z,26.24
2018-09-17T12:14:42.733Z,26.32
2018-09-17T12:17:11.263Z,26.22
2018-09-17T12:19:39.852Z,26.19
2018-09-17T12:22:08.298Z,26.21
2018-09-17T12:24:36.750Z,26.19
2018-09-17T12:27:05.242Z,26.22
2018-09-17T12:29:33.903Z,26.28
2018-09-17T12:32:03.590Z,26.15
2018-09-17T12:34:32.202Z,26.07
2018-09-17T12:37:00.797Z,26.06
2018-09-17T12:39:29.496Z,26.10
2018-09-17T12:41:58.421Z,25.98
2018-09-17T12:44:26.963Z,26.00
2018-09-17T12:46:55.662Z,26.04
2018-09-17T12:49:24.189Z,25.98
2018-09-17T12:51:53.642Z,25.99
2018-09-17T12:54:22.261Z,26.04
2018-09-17T12:56:51.040Z,26.07
2018-09-17T12:59:20.145Z,26.04
2018-09-17T13:01:48.880Z,26.00
2018-09-17T13:04:17.539Z,25.97
2018-09-17T13:06:46.430Z,26.01
2018-09-17T13:09:16.006Z,26.00
2018-09-17T13:11:44.520Z,26.00
2018-09-17T13:14:13.033Z,25.94
2018-09-17T13:18:06.004Z,25.96
2018-09-17T13:20:34.544Z,25.89
2018-09-17T13:23:03.554Z,25.92
2018-09-17T13:25:32.116Z,25.87
2018-09-17T13:28:00.740Z,25.93
2018-09-17T13:30:29.392Z,25.87
2018-09-17T13:32:58.006Z,25.84
2018-09-17T13:35:26.455Z,25.88
2018-09-17T13:37:55.059Z,25.88
2018-09-17T13:40:23.522Z,25.84
2018-09-17T13:42:52.278Z,25.82
2018-09-17T13:45:20.818Z,25.92
2018-09-17T13:47:49.873Z,25.95
2018-09-17T13:50:18.484Z,25.90
2018-09-17T13:52:46.956Z,25.93
2018-09-17T13:55:15.389Z,25.97
2018-09-17T13:57:43.818Z,25.96
2018-09-17T14:00:13.734Z,25.94
2018-09-17T14:02:42.357Z,25.94
2018-09-17T14:05:11.735Z,25.90
2018-09-17T14:07:42.581Z,25.90
2018-09-17T14:10:11.755Z,25.84
2018-09-17T14:12:40.206Z,25.87
2018-09-17T14:15:08.829Z,25.90
2018-09-17T14:17:37.433Z,25.92
2018-09-17T14:20:06.217Z,25.96
2018-09-17T14:22:34.718Z,25.88
2018-09-17T14:25:03.560Z,25.89
2018-09-17T14:27:33.615Z,25.83
2018-09-17T14:30:03.308Z,25.80
2018-09-17T14:33:35.504Z,25.73
2018-09-17T14:36:05.501Z,25.72
2018-09-17T14:38:35.034Z,25.71
2018-09-17T14:41:03.887Z,25.67
2018-09-17T14:43:32.484Z,25.72
2018-09-17T14:46:01.091Z,25.72
2018-09-17T14:48:30.259Z,25.67
2018-09-17T14:50:58.950Z,25.66
2018-09-17T14:53:28.084Z,25.66
2018-09-17T14:55:56.732Z,25.64
2018-09-17T14:58:25.359Z,25.61
2018-09-17T15:00:54.530Z,25.58
2018-09-17T15:03:24.294Z,25.56
2018-09-17T15:05:52.902Z,25.52
2018-09-17T15:08:22.259Z,25.48
2018-09-17T15:10:50.865Z,25.49
2018-09-17T15:13:19.623Z,25.39
2018-09-17T15:15:53.525Z,25.35
2018-09-17T15:18:22.655Z,25.31
2018-09-17T15:20:52.141Z,25.24
2018-09-17T15:23:21.294Z,25.17
2018-09-17T15:25:50.326Z,25.15
2018-09-17T15:28:19.352Z,25.13
2018-09-17T15:30:52.579Z,25.07
2018-09-17T15:33:22.710Z,25.06
2018-09-17T15:35:55.003Z,25.01
2018-09-17T15:38:23.746Z,24.95
2018-09-17T15:40:56.962Z,24.89
2018-09-17T15:43:26.329Z,24.84
2018-09-17T15:45:56.088Z,24.79
2018-09-17T15:48:25.371Z,24.74
2018-09-17T15:50:55.432Z,24.69
2018-09-17T15:53:24.158Z,24.63
2018-09-17T15:55:54.834Z,24.61
2018-09-17T15:58:29.403Z,24.55
2018-09-17T16:01:07.073Z,24.50
2018-09-17T16:03:35.783Z,24.45
2018-09-17T16:06:04.149Z,24.42
2018-09-17T16:08:32.545Z,24.37
2018-09-17T16:11:00.904Z,24.31
2018-09-17T16:13:29.505Z,24.28
2018-09-17T16:15:57.864Z,24.23
2018-09-17T16:18:26.354Z,24.18
2018-09-17T16:20:54.768Z,24.14
2018-09-17T16:23:23.136Z,24.10
2018-09-17T16:25:51.484Z,24.06
2018-09-17T16:28:19.883Z,24.01
2018-09-17T16:30:48.658Z,23.96
2018-09-17T16:33:16.996Z,23.92
2018-09-17T16:35:45.292Z,23.85
2018-09-17T16:38:13.643Z,23.80
2018-09-17T16:40:41.968Z,23.75
2018-09-17T16:43:10.320Z,23.69
2018-09-17T16:45:38.687Z,23.62
2018-09-17T16:48:07.030Z,23.55
2018-09-17T16:50:35.375Z,23.45
2018-09-17T16:53:03.724Z,23.40
2018-09-17T16:55:32.143Z,23.34
2018-09-17T16:58:00.664Z,23.29
2018-09-17T17:00:29.096Z,23.21
2018-09-17T17:02:57.952Z,23.15
2018-09-17T17:05:26.311Z,23.04
2018-09-17T17:07:55.646Z,22.99
2018-09-17T17:10:24.136Z,22.84
2018-09-17T17:12:57.168Z,22.77
2018-09-17T17:15:25.788Z,22.67
2018-09-17T17:17:54.605Z,22.57
2018-09-17T17:20:23.057Z,22.58
2018-09-17T17:22:52.604Z,22.51
2018-09-17T17:25:21.234Z,22.40
2018-09-17T17:27:49.603Z,22.32
2018-09-17T17:30:17.909Z,22.21
2018-09-17T17:32:46.249Z,22.09
2018-09-17T17:35:14.803Z,22.10
2018-09-17T17:37:43.218Z,22.03
2018-09-17T17:40:11.569Z,21.92
2018-09-17T17:42:39.934Z,21.86
2018-09-17T17:45:08.357Z,21.83
2018-09-17T17:47:36.731Z,21.72
2018-09-17T17:50:05.437Z,21.53
2018-09-17T17:52:33.995Z,21.45
2018-09-17T17:55:02.555Z,21.41
2018-09-17T17:57:30.895Z,21.44
2018-09-17T17:59:59.204Z,21.38
2018-09-17T18:02:27.516Z,21.34
2018-09-17T18:04:55.861Z,21.19
2018-09-17T18:07:24.205Z,21.12
2018-09-17T18:09:52.517Z,21.11
2018-09-17T18:12:21.443Z,21.02
2018-09-17T18:14:49.861Z,20.84
2018-09-17T18:17:18.194Z,20.86
2018-09-17T18:19:46.513Z,20.85
2018-09-17T18:22:14.893Z,20.80
2018-09-17T18:24:43.291Z,20.70
2018-09-17T18:27:11.647Z,20.68
2018-09-17T18:29:40.176Z,20.53
2018-09-17T18:32:08.778Z,20.55
2018-09-17T18:34:37.135Z,20.47
2018-09-17T18:37:05.871Z,20.39
2018-09-17T18:39:34.573Z,20.39
2018-09-17T18:42:03.475Z,20.20
2018-09-17T18:44:31.852Z,20.19
2018-09-17T18:47:00.221Z,20.17
2018-09-17T18:49:28.532Z,20.11
2018-09-17T18:51:56.935Z,20.05
2018-09-17T18:54:25.745Z,20.02
2018-09-17T18:56:54.125Z,19.97
2018-09-17T18:59:22.832Z,19.94
2018-09-17T19:01:51.162Z,19.91
2018-09-17T19:04:19.520Z,19.86
2018-09-17T19:06:47.866Z,19.80
2018-09-17T19:09:16.829Z,19.77
2018-09-17T19:11:45.305Z,19.70
2018-09-17T19:14:20.436Z,19.61
2018-09-17T19:16:55.891Z,19.63
2018-09-17T19:19:24.688Z,19.62
2018-09-17T19:23:01.158Z,19.52
2018-09-17T19:25:29.466Z,19.45
2018-09-17T19:28:04.737Z,19.44
2018-09-17T19:30:33.090Z,19.41
2018-09-17T19:33:01.404Z,19.36
2018-09-17T19:35:29.741Z,19.29
2018-09-17T19:38:03.450Z,19.27
2018-09-17T19:40:32.372Z,19.28
2018-09-17T19:43:00.717Z,19.26
2018-09-17T19:45:34.581Z,19.22
2018-09-17T19:48:02.992Z,19.17
2018-09-17T19:50:37.420Z,19.18
2018-09-17T19:53:05.804Z,19.11
2018-09-17T19:55:34.945Z,19.06
2018-09-17T19:58:08.695Z,19.05
2018-09-17T20:00:37.133Z,19.01
2018-09-17T20:03:05.412Z,18.91
2018-09-17T20:05:39.157Z,18.90
2018-09-17T20:08:08.575Z,18.80
2018-09-17T20:10:37.744Z,18.71
2018-09-17T20:13:06.163Z,18.71
2018-09-17T20:15:34.491Z,18.68
2018-09-17T20:18:02.900Z,18.64
2018-09-17T20:20:31.469Z,18.52
2018-09-17T20:22:59.790Z,18.42
2018-09-17T20:25:28.207Z,18.48
2018-09-17T20:27:56.540Z,18.50
2018-09-17T20:30:24.894Z,18.55
2018-09-17T20:32:53.269Z,18.54
2018-09-17T20:35:21.774Z,18.46
2018-09-17T20:37:50.128Z,18.39
2018-09-17T20:40:18.445Z,18.42
2018-09-17T20:42:46.795Z,18.39
2018-09-17T20:45:15.173Z,18.38
2018-09-17T20:47:43.503Z,18.29
2018-09-17T20:50:12.542Z,18.23
2018-09-17T20:52:41.042Z,18.27
2018-09-17T20:55:09.369Z,18.25
2018-09-17T20:57:37.715Z,18.25
2018-09-17T21:00:06.066Z,18.16
2018-09-17T21:02:34.393Z,18.19
2018-09-17T21:05:02.738Z,18.03
2018-09-17T21:07:31.077Z,18.03
2018-09-17T21:09:59.410Z,18.06
2018-09-17T21:12:27.815Z,18.00
2018-09-17T21:14:56.152Z,18.00
2018-09-17T21:17:24.516Z,18.03
2018-09-17T21:19:52.963Z,18.02
2018-09-17T21:22:21.327Z,17.83
2018-09-17T21:24:49.744Z,17.84
2018-09-17T21:27:18.123Z,17.89
2018-09-17T21:29:46.584Z,17.88
2018-09-17T21:32:15.012Z,17.81
2018-09-17T21:34:43.369Z,17.81
2018-09-17T21:37:11.759Z,17.81
2018-09-17T21:39:40.170Z,17.81
2018-09-17T21:42:08.737Z,17.79
2018-09-17T21:44:37.117Z,17.73
2018-09-17T21:47:05.503Z,17.68
2018-09-17T21:49:33.834Z,17.57
2018-09-17T21:52:02.156Z,17.55
2018-09-17T21:54:30.604Z,17.54
2018-09-17T21:56:58.981Z,17.52
2018-09-17T21:59:27.303Z,17.51
2018-09-17T22:01:55.674Z,17.41
2018-09-17T22:04:26.706Z,17.33
2018-09-17T22:06:56.453Z,17.41
2018-09-17T22:09:35.184Z,17.41
2018-09-17T22:12:08.889Z,17.32
2018-09-17T22:14:37.338Z,17.27
2018-09-17T22:17:06.379Z,17.28
2018-09-17T22:19:34.799Z,17.32
2018-09-17T22:22:03.156Z,17.17
2018-09-17T22:24:31.533Z,17.11
2018-09-17T22:27:01.041Z,17.05
2018-09-17T22:29:29.456Z,17.16
2018-09-17T22:31:58.315Z,17.16
2018-09-17T22:34:26.764Z,17.15
2018-09-17T22:36:56.880Z,17.11
2018-09-17T22:39:25.293Z,17.08
2018-09-17T22:41:54.488Z,16.99
2018-09-17T22:44:22.823Z,16.99
2018-09-17T22:46:51.147Z,16.99
2018-09-17T22:49:20.161Z,17.01
2018-09-17T22:51:48.571Z,16.95
2018-09-17T22:54:16.926Z,16.92
2018-09-17T22:56:45.277Z,16.96
2018-09-17T22:59:14.932Z,16.91
2018-09-17T23:01:44.269Z,16.89
2018-09-17T23:04:12.625Z,16.89
2018-09-17T23:06:40.987Z,16.91
2018-09-17T23:09:10.443Z,16.92
2018-09-17T23:11:38.816Z,16.82
2018-09-17T23:14:07.179Z,16.84
2018-09-17T23:16:35.521Z,16.82
2018-09-17T23:19:03.872Z,16.83
2018-09-17T23:21:32.188Z,16.83
2018-09-17T23:24:00.520Z,16.80
2018-09-17T23:26:28.867Z,16.80
2018-09-17T23:28:57.216Z,16.73
2018-09-17T23:31:25.865Z,16.74
2018-09-17T23:33:54.195Z,16.74
2018-09-17T23:36:22.555Z,16.71
2018-09-17T23:38:51.344Z,16.72
2018-09-17T23:41:19.695Z,16.67
2018-09-17T23:43:48.220Z,16.62
2018-09-17T23:46:16.624Z,16.61
2018-09-17T23:48:45.026Z,16.62
2018-09-17T23:51:13.509Z,16.58
2018-09-17T23:55:06.275Z,16.56
2018-09-17T23:57:34.620Z,16.57
